sensor_id;sensor_type;location;lat;lon;timestamp;pressure;altitude;pressure_sealevel;temperature;humidity
51227;BME280;42714;48.260;10.980;2024-02-21T00:00:27;981.0;;;3.8;84.5
51227;BME280;42714;48.260;10.980;2024-02-21T00:05:28;980.9;;;3.9;84.1
51227;BME280;42714;48.260;10.980;2024-02-21T00:10:29;980.9;;;4.0;83.7
51227;BME280;42714;48.260;10.980;2024-02-21T00:15:30;980.7;;;4.1;83.4
51227;BME280;42714;48.260;10.980;2024-02-21T00:20:31;980.6;;;4.1;83.3
51227;BME280;42714;48.260;10.980;2024-02-21T00:25:32;980.6;;;4.1;83.5
51227;BME280;42714;48.260;10.980;2024-02-21T00:30:33;980.6;;;4.3;83.4
51227;BME280;42714;48.260;10.980;2024-02-21T00:35:34;980.5;;;4.4;82.5
51227;BME280;42714;48.260;10.980;2024-02-21T00:40:35;980.5;;;4.5;81.6
51227;BME280;42714;48.260;10.980;2024-02-21T00:45:36;980.5;;;4.6;81.2
51227;BME280;42714;48.260;10.980;2024-02-21T00:50:38;980.4;;;4.7;80.7
51227;BME280;42714;48.260;10.980;2024-02-21T00:55:38;980.4;;;4.8;80.3
51227;BME280;42714;48.260;10.980;2024-02-21T01:00:39;980.4;;;4.8;80.0
51227;BME280;42714;48.260;10.980;2024-02-21T01:05:40;980.4;;;4.8;79.9
51227;BME280;42714;48.260;10.980;2024-02-21T01:10:41;980.4;;;4.7;79.9
51227;BME280;42714;48.260;10.980;2024-02-21T01:15:43;980.3;;;4.6;80.3
51227;BME280;42714;48.260;10.980;2024-02-21T01:20:44;980.3;;;4.6;80.7
51227;BME280;42714;48.260;10.980;2024-02-21T01:25:45;980.3;;;4.5;81.0
51227;BME280;42714;48.260;10.980;2024-02-21T01:30:46;980.2;;;4.5;81.2
51227;BME280;42714;48.260;10.980;2024-02-21T01:35:47;980.2;;;4.5;81.4
51227;BME280;42714;48.260;10.980;2024-02-21T01:40:48;980.1;;;4.5;81.8
51227;BME280;42714;48.260;10.980;2024-02-21T01:45:49;980.0;;;4.5;82.2
51227;BME280;42714;48.260;10.980;2024-02-21T01:50:50;979.9;;;4.5;82.5
51227;BME280;42714;48.260;10.980;2024-02-21T01:55:51;979.8;;;4.6;82.6
51227;BME280;42714;48.260;10.980;2024-02-21T02:00:52;979.8;;;4.5;82.4
51227;BME280;42714;48.260;10.980;2024-02-21T02:05:53;979.7;;;4.5;82.5
51227;BME280;42714;48.260;10.980;2024-02-21T02:10:54;979.7;;;4.3;83.5
51227;BME280;42714;48.260;10.980;2024-02-21T02:15:55;979.6;;;4.3;84.3
51227;BME280;42714;48.260;10.980;2024-02-21T02:20:56;979.5;;;4.2;85.1
51227;BME280;42714;48.260;10.980;2024-02-21T02:25:57;979.5;;;4.2;85.7
51227;BME280;42714;48.260;10.980;2024-02-21T02:30:58;979.5;;;4.1;85.8
51227;BME280;42714;48.260;10.980;2024-02-21T02:35:59;979.3;;;4.0;85.7
51227;BME280;42714;48.260;10.980;2024-02-21T02:41:00;979.3;;;4.0;85.6
51227;BME280;42714;48.260;10.980;2024-02-21T02:46:01;979.2;;;4.0;85.5
51227;BME280;42714;48.260;10.980;2024-02-21T02:51:02;979.2;;;4.0;85.6
51227;BME280;42714;48.260;10.980;2024-02-21T02:56:04;979.2;;;4.0;85.6
51227;BME280;42714;48.260;10.980;2024-02-21T03:01:04;979.1;;;4.0;85.5
51227;BME280;42714;48.260;10.980;2024-02-21T03:06:05;979.1;;;4.0;85.5
51227;BME280;42714;48.260;10.980;2024-02-21T03:11:06;979.0;;;4.0;85.4
51227;BME280;42714;48.260;10.980;2024-02-21T03:16:07;979.0;;;4.1;85.3
51227;BME280;42714;48.260;10.980;2024-02-21T03:21:08;979.0;;;4.1;85.1
51227;BME280;42714;48.260;10.980;2024-02-21T03:26:09;979.1;;;4.1;85.0
51227;BME280;42714;48.260;10.980;2024-02-21T03:31:10;979.1;;;4.2;84.8
51227;BME280;42714;48.260;10.980;2024-02-21T03:41:12;979.0;;;4.3;84.3
51227;BME280;42714;48.260;10.980;2024-02-21T03:46:13;979.0;;;4.3;84.0
51227;BME280;42714;48.260;10.980;2024-02-21T03:51:14;979.0;;;4.4;83.6
51227;BME280;42714;48.260;10.980;2024-02-21T03:56:15;979.0;;;4.4;83.6
51227;BME280;42714;48.260;10.980;2024-02-21T04:01:16;979.0;;;4.5;83.4
51227;BME280;42714;48.260;10.980;2024-02-21T04:06:17;978.9;;;4.5;83.4
51227;BME280;42714;48.260;10.980;2024-02-21T04:11:18;978.8;;;4.5;83.4
51227;BME280;42714;48.260;10.980;2024-02-21T04:16:19;978.7;;;4.5;83.4
51227;BME280;42714;48.260;10.980;2024-02-21T04:21:20;978.7;;;4.6;83.6
51227;BME280;42714;48.260;10.980;2024-02-21T04:26:21;978.6;;;4.6;83.4
51227;BME280;42714;48.260;10.980;2024-02-21T04:31:22;978.5;;;4.6;83.6
51227;BME280;42714;48.260;10.980;2024-02-21T04:36:23;978.4;;;4.4;84.0
51227;BME280;42714;48.260;10.980;2024-02-21T04:41:24;978.4;;;4.2;84.8
51227;BME280;42714;48.260;10.980;2024-02-21T04:46:25;978.4;;;4.0;85.7
51227;BME280;42714;48.260;10.980;2024-02-21T04:51:26;978.3;;;3.8;86.4
51227;BME280;42714;48.260;10.980;2024-02-21T04:56:27;978.2;;;3.7;87.2
51227;BME280;42714;48.260;10.980;2024-02-21T05:01:28;978.1;;;3.6;87.5
51227;BME280;42714;48.260;10.980;2024-02-21T05:06:29;978.0;;;3.5;87.9
51227;BME280;42714;48.260;10.980;2024-02-21T05:11:30;978.0;;;3.4;88.4
51227;BME280;42714;48.260;10.980;2024-02-21T05:16:31;977.9;;;3.3;88.7
51227;BME280;42714;48.260;10.980;2024-02-21T05:21:32;977.9;;;3.2;88.9
51227;BME280;42714;48.260;10.980;2024-02-21T05:26:33;977.8;;;3.1;89.6
51227;BME280;42714;48.260;10.980;2024-02-21T05:36:35;977.6;;;3.1;90.2
51227;BME280;42714;48.260;10.980;2024-02-21T05:41:36;977.6;;;3.1;89.8
51227;BME280;42714;48.260;10.980;2024-02-21T05:46:37;977.5;;;3.2;89.2
51227;BME280;42714;48.260;10.980;2024-02-21T05:51:38;977.4;;;3.2;88.5
51227;BME280;42714;48.260;10.980;2024-02-21T05:56:39;977.3;;;3.3;87.6
51227;BME280;42714;48.260;10.980;2024-02-21T06:01:40;977.2;;;3.3;87.1
51227;BME280;42714;48.260;10.980;2024-02-21T06:06:41;977.1;;;3.4;86.4
51227;BME280;42714;48.260;10.980;2024-02-21T06:11:42;977.1;;;3.4;85.7
51227;BME280;42714;48.260;10.980;2024-02-21T06:16:43;977.2;;;3.4;85.2
51227;BME280;42714;48.260;10.980;2024-02-21T06:21:44;977.2;;;3.5;85.0
51227;BME280;42714;48.260;10.980;2024-02-21T06:26:45;977.2;;;3.7;84.3
51227;BME280;42714;48.260;10.980;2024-02-21T06:31:46;977.3;;;3.9;83.5
51227;BME280;42714;48.260;10.980;2024-02-21T06:36:47;977.2;;;4.0;82.8
51227;BME280;42714;48.260;10.980;2024-02-21T06:41:48;977.2;;;4.1;82.1
51227;BME280;42714;48.260;10.980;2024-02-21T06:46:49;977.2;;;4.1;82.3
51227;BME280;42714;48.260;10.980;2024-02-21T06:51:50;977.2;;;4.4;81.8
51227;BME280;42714;48.260;10.980;2024-02-21T06:56:51;977.2;;;4.7;81.2
51227;BME280;42714;48.260;10.980;2024-02-21T07:01:53;977.1;;;5.0;80.0
51227;BME280;42714;48.260;10.980;2024-02-21T07:06:53;977.1;;;5.2;78.1
51227;BME280;42714;48.260;10.980;2024-02-21T07:11:54;977.1;;;5.1;78.1
51227;BME280;42714;48.260;10.980;2024-02-21T07:16:55;977.1;;;5.2;78.0
51227;BME280;42714;48.260;10.980;2024-02-21T07:21:56;977.0;;;5.4;77.4
51227;BME280;42714;48.260;10.980;2024-02-21T07:26:57;976.9;;;5.4;76.6
51227;BME280;42714;48.260;10.980;2024-02-21T07:31:58;976.8;;;5.6;76.2
51227;BME280;42714;48.260;10.980;2024-02-21T07:36:59;976.6;;;7.9;69.0
51227;BME280;42714;48.260;10.980;2024-02-21T07:42:00;976.6;;;10.1;59.3
51227;BME280;42714;48.260;10.980;2024-02-21T07:47:01;976.5;;;11.5;53.8
51227;BME280;42714;48.260;10.980;2024-02-21T07:52:02;976.5;;;12.1;51.2
51227;BME280;42714;48.260;10.980;2024-02-21T07:57:03;976.4;;;11.7;52.0
51227;BME280;42714;48.260;10.980;2024-02-21T08:02:04;976.6;;;10.4;54.7
51227;BME280;42714;48.260;10.980;2024-02-21T08:07:05;976.7;;;10.5;54.8
51227;BME280;42714;48.260;10.980;2024-02-21T08:12:06;976.5;;;11.3;53.3
51227;BME280;42714;48.260;10.980;2024-02-21T08:17:07;976.4;;;12.2;50.2
51227;BME280;42714;48.260;10.980;2024-02-21T08:22:08;976.4;;;12.9;48.3
51227;BME280;42714;48.260;10.980;2024-02-21T08:27:09;976.2;;;13.6;45.3
51227;BME280;42714;48.260;10.980;2024-02-21T08:32:10;976.1;;;14.1;44.8
51227;BME280;42714;48.260;10.980;2024-02-21T08:37:11;976.0;;;14.4;43.8
51227;BME280;42714;48.260;10.980;2024-02-21T08:42:12;976.0;;;14.4;41.9
51227;BME280;42714;48.260;10.980;2024-02-21T08:47:13;976.1;;;14.7;40.1
51227;BME280;42714;48.260;10.980;2024-02-21T08:52:14;976.1;;;15.6;39.1
51227;BME280;42714;48.260;10.980;2024-02-21T08:57:15;976.0;;;16.4;35.8
51227;BME280;42714;48.260;10.980;2024-02-21T09:02:16;976.0;;;15.9;36.3
51227;BME280;42714;48.260;10.980;2024-02-21T09:07:17;976.0;;;15.5;37.2
51227;BME280;42714;48.260;10.980;2024-02-21T09:12:18;976.1;;;15.1;39.6
51227;BME280;42714;48.260;10.980;2024-02-21T09:17:19;976.0;;;15.8;37.2
51227;BME280;42714;48.260;10.980;2024-02-21T09:22:20;975.9;;;15.7;36.8
51227;BME280;42714;48.260;10.980;2024-02-21T09:27:21;975.8;;;15.3;37.3
51227;BME280;42714;48.260;10.980;2024-02-21T09:32:22;975.8;;;15.5;36.9
51227;BME280;42714;48.260;10.980;2024-02-21T09:37:23;975.8;;;15.4;37.5
51227;BME280;42714;48.260;10.980;2024-02-21T09:42:27;975.8;;;15.7;37.8
51227;BME280;42714;48.260;10.980;2024-02-21T09:47:30;975.6;;;16.3;36.7
51227;BME280;42714;48.260;10.980;2024-02-21T09:52:26;975.6;;;16.9;35.2
51227;BME280;42714;48.260;10.980;2024-02-21T09:57:27;975.5;;;16.8;35.3
51227;BME280;42714;48.260;10.980;2024-02-21T10:02:28;975.5;;;17.0;35.4
51227;BME280;42714;48.260;10.980;2024-02-21T10:07:29;975.4;;;16.9;35.1
51227;BME280;42714;48.260;10.980;2024-02-21T10:12:30;975.3;;;17.3;34.4
51227;BME280;42714;48.260;10.980;2024-02-21T10:17:32;975.3;;;17.1;35.1
51227;BME280;42714;48.260;10.980;2024-02-21T10:22:32;975.3;;;16.9;35.4
51227;BME280;42714;48.260;10.980;2024-02-21T10:27:33;975.2;;;16.6;35.7
51227;BME280;42714;48.260;10.980;2024-02-21T10:32:34;975.2;;;16.8;34.9
51227;BME280;42714;48.260;10.980;2024-02-21T10:37:35;975.0;;;16.6;36.0
51227;BME280;42714;48.260;10.980;2024-02-21T10:42:36;975.0;;;16.8;36.3
51227;BME280;42714;48.260;10.980;2024-02-21T10:47:37;974.8;;;17.3;35.8
51227;BME280;42714;48.260;10.980;2024-02-21T10:52:44;974.7;;;16.5;32.7
51227;BME280;42714;48.260;10.980;2024-02-21T10:57:39;974.6;;;16.2;34.3
51227;BME280;42714;48.260;10.980;2024-02-21T11:02:40;974.6;;;16.2;33.8
51227;BME280;42714;48.260;10.980;2024-02-21T11:07:41;974.5;;;16.3;33.6
51227;BME280;42714;48.260;10.980;2024-02-21T11:12:42;974.3;;;16.6;33.5
51227;BME280;42714;48.260;10.980;2024-02-21T11:17:53;974.3;;;16.6;35.0
51227;BME280;42714;48.260;10.980;2024-02-21T11:22:44;974.2;;;16.6;34.8
51227;BME280;42714;48.260;10.980;2024-02-21T11:27:45;974.2;;;16.6;35.6
51227;BME280;42714;48.260;10.980;2024-02-21T11:32:46;974.1;;;16.6;34.7
51227;BME280;42714;48.260;10.980;2024-02-21T11:37:47;973.9;;;17.3;34.3
51227;BME280;42714;48.260;10.980;2024-02-21T11:42:48;973.8;;;16.8;34.0
51227;BME280;42714;48.260;10.980;2024-02-21T11:47:49;973.7;;;16.9;32.4
51227;BME280;42714;48.260;10.980;2024-02-21T11:52:50;973.5;;;18.1;30.4
51227;BME280;42714;48.260;10.980;2024-02-21T11:57:51;973.4;;;17.7;32.0
51227;BME280;42714;48.260;10.980;2024-02-21T12:02:52;973.3;;;18.6;30.4
51227;BME280;42714;48.260;10.980;2024-02-21T12:07:53;973.1;;;19.5;28.1
51227;BME280;42714;48.260;10.980;2024-02-21T12:13:04;973.1;;;19.5;28.6
51227;BME280;42714;48.260;10.980;2024-02-21T12:17:55;973.0;;;19.4;28.6
51227;BME280;42714;48.260;10.980;2024-02-21T12:22:56;972.9;;;20.2;28.1
51227;BME280;42714;48.260;10.980;2024-02-21T12:27:57;972.8;;;19.0;27.3
51227;BME280;42714;48.260;10.980;2024-02-21T12:32:58;972.7;;;18.1;30.2
51227;BME280;42714;48.260;10.980;2024-02-21T12:37:59;972.5;;;17.7;30.1
51227;BME280;42714;48.260;10.980;2024-02-21T12:43:00;972.5;;;18.3;29.4
51227;BME280;42714;48.260;10.980;2024-02-21T12:48:01;972.5;;;18.8;28.7
51227;BME280;42714;48.260;10.980;2024-02-21T12:53:02;972.4;;;18.3;28.6
51227;BME280;42714;48.260;10.980;2024-02-21T12:58:03;972.3;;;18.5;29.8
51227;BME280;42714;48.260;10.980;2024-02-21T13:03:04;972.2;;;18.1;30.5
51227;BME280;42714;48.260;10.980;2024-02-21T13:08:06;972.0;;;18.1;29.3
51227;BME280;42714;48.260;10.980;2024-02-21T13:13:06;972.0;;;18.4;28.7
51227;BME280;42714;48.260;10.980;2024-02-21T13:18:07;971.9;;;18.8;28.2
51227;BME280;42714;48.260;10.980;2024-02-21T13:23:08;971.8;;;18.8;28.4
51227;BME280;42714;48.260;10.980;2024-02-21T13:28:09;971.7;;;18.4;28.0
51227;BME280;42714;48.260;10.980;2024-02-21T13:33:10;971.5;;;17.3;29.3
51227;BME280;42714;48.260;10.980;2024-02-21T13:38:11;971.5;;;16.8;31.7
51227;BME280;42714;48.260;10.980;2024-02-21T13:43:12;971.3;;;17.1;31.3
51227;BME280;42714;48.260;10.980;2024-02-21T13:48:13;971.2;;;17.6;29.8
51227;BME280;42714;48.260;10.980;2024-02-21T13:53:14;971.1;;;17.5;30.9
51227;BME280;42714;48.260;10.980;2024-02-21T13:58:16;971.0;;;17.8;30.3
51227;BME280;42714;48.260;10.980;2024-02-21T14:03:16;971.0;;;18.0;30.3
51227;BME280;42714;48.260;10.980;2024-02-21T14:08:17;970.9;;;18.3;29.8
51227;BME280;42714;48.260;10.980;2024-02-21T14:13:18;970.8;;;18.3;30.0
51227;BME280;42714;48.260;10.980;2024-02-21T14:18:19;970.8;;;17.4;31.4
51227;BME280;42714;48.260;10.980;2024-02-21T14:23:20;970.8;;;16.8;31.3
51227;BME280;42714;48.260;10.980;2024-02-21T14:28:21;970.7;;;16.3;30.7
51227;BME280;42714;48.260;10.980;2024-02-21T14:33:23;970.7;;;16.0;31.2
51227;BME280;42714;48.260;10.980;2024-02-21T14:38:23;970.6;;;15.8;31.9
51227;BME280;42714;48.260;10.980;2024-02-21T14:43:24;970.5;;;15.6;31.7
51227;BME280;42714;48.260;10.980;2024-02-21T14:48:25;970.5;;;15.3;32.5
51227;BME280;42714;48.260;10.980;2024-02-21T14:53:26;970.5;;;15.1;33.3
51227;BME280;42714;48.260;10.980;2024-02-21T14:58:27;970.5;;;14.9;33.8
51227;BME280;42714;48.260;10.980;2024-02-21T15:03:28;970.5;;;14.6;34.3
51227;BME280;42714;48.260;10.980;2024-02-21T15:08:29;970.4;;;14.2;36.1
51227;BME280;42714;48.260;10.980;2024-02-21T15:13:30;970.4;;;14.0;37.4
51227;BME280;42714;48.260;10.980;2024-02-21T15:18:31;970.4;;;13.8;38.9
51227;BME280;42714;48.260;10.980;2024-02-21T15:23:32;970.3;;;13.6;39.4
51227;BME280;42714;48.260;10.980;2024-02-21T15:28:33;970.3;;;13.5;38.9
51227;BME280;42714;48.260;10.980;2024-02-21T15:33:34;970.2;;;13.3;40.3
51227;BME280;42714;48.260;10.980;2024-02-21T15:38:35;970.2;;;13.1;40.3
51227;BME280;42714;48.260;10.980;2024-02-21T15:43:36;970.1;;;12.9;41.0
51227;BME280;42714;48.260;10.980;2024-02-21T15:48:37;970.0;;;12.8;41.4
51227;BME280;42714;48.260;10.980;2024-02-21T15:53:38;970.0;;;12.5;41.6
51227;BME280;42714;48.260;10.980;2024-02-21T15:58:40;969.9;;;12.4;42.6
51227;BME280;42714;48.260;10.980;2024-02-21T16:03:40;969.9;;;12.2;43.1
51227;BME280;42714;48.260;10.980;2024-02-21T16:08:41;969.9;;;12.1;43.8
51227;BME280;42714;48.260;10.980;2024-02-21T16:13:43;969.8;;;12.0;43.5
51227;BME280;42714;48.260;10.980;2024-02-21T16:18:43;969.8;;;11.9;44.3
51227;BME280;42714;48.260;10.980;2024-02-21T16:23:44;969.8;;;11.8;45.8
51227;BME280;42714;48.260;10.980;2024-02-21T16:28:45;969.8;;;11.6;46.5
51227;BME280;42714;48.260;10.980;2024-02-21T16:33:46;969.8;;;11.5;45.6
51227;BME280;42714;48.260;10.980;2024-02-21T16:38:48;969.7;;;11.2;47.3
51227;BME280;42714;48.260;10.980;2024-02-21T16:43:48;969.6;;;11.1;46.9
51227;BME280;42714;48.260;10.980;2024-02-21T16:48:49;969.6;;;10.9;47.0
51227;BME280;42714;48.260;10.980;2024-02-21T16:53:50;969.5;;;10.8;48.2
51227;BME280;42714;48.260;10.980;2024-02-21T16:58:51;969.4;;;10.6;48.8
51227;BME280;42714;48.260;10.980;2024-02-21T17:03:52;969.4;;;10.4;49.9
51227;BME280;42714;48.260;10.980;2024-02-21T17:08:53;969.3;;;10.3;50.8
51227;BME280;42714;48.260;10.980;2024-02-21T17:13:55;969.3;;;10.2;52.3
51227;BME280;42714;48.260;10.980;2024-02-21T17:18:56;969.3;;;10.1;53.3
51227;BME280;42714;48.260;10.980;2024-02-21T17:23:57;969.2;;;10.0;52.6
51227;BME280;42714;48.260;10.980;2024-02-21T17:28:57;969.2;;;10.0;53.5
51227;BME280;42714;48.260;10.980;2024-02-21T17:33:58;969.1;;;9.8;54.5
51227;BME280;42714;48.260;10.980;2024-02-21T17:38:59;969.1;;;9.6;54.9
51227;BME280;42714;48.260;10.980;2024-02-21T17:44:00;969.0;;;9.4;54.9
51227;BME280;42714;48.260;10.980;2024-02-21T17:49:01;969.0;;;9.3;55.0
51227;BME280;42714;48.260;10.980;2024-02-21T17:54:03;968.9;;;9.2;56.0
51227;BME280;42714;48.260;10.980;2024-02-21T17:59:03;968.9;;;9.0;56.6
51227;BME280;42714;48.260;10.980;2024-02-21T18:04:04;968.8;;;9.0;57.1
51227;BME280;42714;48.260;10.980;2024-02-21T18:09:06;968.6;;;9.1;56.3
51227;BME280;42714;48.260;10.980;2024-02-21T18:14:06;968.6;;;9.1;56.2
51227;BME280;42714;48.260;10.980;2024-02-21T18:19:08;968.5;;;9.1;56.9
51227;BME280;42714;48.260;10.980;2024-02-21T18:24:09;968.5;;;9.0;56.9
51227;BME280;42714;48.260;10.980;2024-02-21T18:29:10;968.4;;;9.1;56.6
51227;BME280;42714;48.260;10.980;2024-02-21T18:34:11;968.4;;;9.1;56.5
51227;BME280;42714;48.260;10.980;2024-02-21T18:39:12;968.4;;;9.1;56.3
51227;BME280;42714;48.260;10.980;2024-02-21T18:44:13;968.3;;;9.0;56.9
51227;BME280;42714;48.260;10.980;2024-02-21T18:49:14;968.2;;;9.0;57.2
51227;BME280;42714;48.260;10.980;2024-02-21T18:54:15;968.2;;;9.1;57.5
51227;BME280;42714;48.260;10.980;2024-02-21T18:59:16;968.2;;;9.1;58.0
51227;BME280;42714;48.260;10.980;2024-02-21T19:04:17;968.2;;;9.1;58.1
51227;BME280;42714;48.260;10.980;2024-02-21T19:09:18;968.0;;;9.2;58.5
51227;BME280;42714;48.260;10.980;2024-02-21T19:14:19;968.0;;;9.1;58.7
51227;BME280;42714;48.260;10.980;2024-02-21T19:19:20;968.0;;;9.1;58.8
51227;BME280;42714;48.260;10.980;2024-02-21T19:24:21;968.0;;;9.0;58.9
51227;BME280;42714;48.260;10.980;2024-02-21T19:29:22;968.0;;;9.0;59.1
51227;BME280;42714;48.260;10.980;2024-02-21T19:34:24;967.9;;;9.1;59.1
51227;BME280;42714;48.260;10.980;2024-02-21T19:39:24;967.8;;;9.1;59.3
51227;BME280;42714;48.260;10.980;2024-02-21T19:44:25;967.8;;;9.1;59.1
51227;BME280;42714;48.260;10.980;2024-02-21T19:49:26;967.8;;;9.1;58.7
51227;BME280;42714;48.260;10.980;2024-02-21T19:54:27;967.7;;;9.2;58.2
51227;BME280;42714;48.260;10.980;2024-02-21T19:59:28;967.6;;;9.2;58.4
51227;BME280;42714;48.260;10.980;2024-02-21T20:04:29;967.6;;;9.3;58.5
51227;BME280;42714;48.260;10.980;2024-02-21T20:09:30;967.5;;;9.3;58.2
51227;BME280;42714;48.260;10.980;2024-02-21T20:14:31;967.4;;;9.3;58.8
51227;BME280;42714;48.260;10.980;2024-02-21T20:19:32;967.2;;;9.2;58.9
51227;BME280;42714;48.260;10.980;2024-02-21T20:24:33;967.3;;;9.1;59.2
51227;BME280;42714;48.260;10.980;2024-02-21T20:29:34;967.2;;;9.1;59.4
51227;BME280;42714;48.260;10.980;2024-02-21T20:34:35;967.2;;;9.1;59.4
51227;BME280;42714;48.260;10.980;2024-02-21T20:39:36;967.2;;;9.1;59.2
51227;BME280;42714;48.260;10.980;2024-02-21T20:44:37;967.2;;;9.1;59.6
51227;BME280;42714;48.260;10.980;2024-02-21T20:49:38;967.1;;;9.1;59.6
51227;BME280;42714;48.260;10.980;2024-02-21T20:54:39;967.2;;;9.2;59.8
51227;BME280;42714;48.260;10.980;2024-02-21T20:59:40;967.0;;;9.1;59.6
51227;BME280;42714;48.260;10.980;2024-02-21T21:04:41;967.0;;;9.1;59.9
51227;BME280;42714;48.260;10.980;2024-02-21T21:09:42;967.0;;;9.1;60.3
51227;BME280;42714;48.260;10.980;2024-02-21T21:14:43;966.8;;;9.1;59.9
51227;BME280;42714;48.260;10.980;2024-02-21T21:19:44;966.8;;;9.1;59.8
51227;BME280;42714;48.260;10.980;2024-02-21T21:24:45;966.7;;;9.1;59.1
51227;BME280;42714;48.260;10.980;2024-02-21T21:29:46;966.7;;;9.1;58.9
51227;BME280;42714;48.260;10.980;2024-02-21T21:34:47;966.6;;;9.1;59.0
51227;BME280;42714;48.260;10.980;2024-02-21T21:39:48;966.6;;;9.1;58.7
51227;BME280;42714;48.260;10.980;2024-02-21T21:44:49;966.6;;;9.1;58.9
51227;BME280;42714;48.260;10.980;2024-02-21T21:49:50;966.5;;;9.2;58.9
51227;BME280;42714;48.260;10.980;2024-02-21T21:54:51;966.5;;;9.2;59.1
51227;BME280;42714;48.260;10.980;2024-02-21T21:59:52;966.3;;;9.1;60.0
51227;BME280;42714;48.260;10.980;2024-02-21T22:04:53;966.3;;;9.1;60.6
51227;BME280;42714;48.260;10.980;2024-02-21T22:09:54;966.1;;;9.1;60.8
51227;BME280;42714;48.260;10.980;2024-02-21T22:14:55;966.1;;;9.1;60.9
51227;BME280;42714;48.260;10.980;2024-02-21T22:19:56;966.1;;;9.1;61.0
51227;BME280;42714;48.260;10.980;2024-02-21T22:24:57;966.0;;;9.1;61.0
51227;BME280;42714;48.260;10.980;2024-02-21T22:29:58;965.9;;;9.1;61.3
51227;BME280;42714;48.260;10.980;2024-02-21T22:34:59;965.8;;;9.0;62.4
51227;BME280;42714;48.260;10.980;2024-02-21T22:40:00;965.8;;;9.1;62.3
51227;BME280;42714;48.260;10.980;2024-02-21T22:45:01;965.7;;;9.2;61.7
51227;BME280;42714;48.260;10.980;2024-02-21T22:50:02;965.5;;;9.2;61.7
51227;BME280;42714;48.260;10.980;2024-02-21T22:55:03;965.5;;;9.2;61.6
51227;BME280;42714;48.260;10.980;2024-02-21T23:00:05;965.4;;;9.3;61.6
51227;BME280;42714;48.260;10.980;2024-02-21T23:05:05;965.3;;;9.3;61.6
51227;BME280;42714;48.260;10.980;2024-02-21T23:10:06;965.3;;;9.3;60.9
51227;BME280;42714;48.260;10.980;2024-02-21T23:15:07;965.2;;;9.3;60.5
51227;BME280;42714;48.260;10.980;2024-02-21T23:20:08;965.1;;;9.4;59.5
51227;BME280;42714;48.260;10.980;2024-02-21T23:25:09;965.0;;;9.6;58.1
51227;BME280;42714;48.260;10.980;2024-02-21T23:30:10;964.9;;;9.7;57.7
51227;BME280;42714;48.260;10.980;2024-02-21T23:35:11;964.7;;;9.8;56.5
51227;BME280;42714;48.260;10.980;2024-02-21T23:40:12;964.6;;;9.9;54.9
51227;BME280;42714;48.260;10.980;2024-02-21T23:45:13;964.4;;;10.2;53.8
51227;BME280;42714;48.260;10.980;2024-02-21T23:50:14;964.3;;;10.6;53.2
51227;BME280;42714;48.260;10.980;2024-02-21T23:55:15;964.2;;;10.9;52.2
